createdAt,value
2023-10-12T00:00:53.135Z,100513.06
2023-10-12T00:03:56.922Z,100510.38
2023-10-12T00:06:58.796Z,100493.56
2023-10-12T00:10:01.528Z,100505.13
2023-10-12T00:13:03.588Z,100496.22
2023-10-12T00:16:05.515Z,100497.19
2023-10-12T00:19:08.612Z,100497.22
2023-10-12T00:22:10.381Z,100492.81
2023-10-12T00:25:12.075Z,100496.38
2023-10-12T00:28:14.569Z,100489.31
2023-10-12T00:31:16.323Z,100472.41
2023-10-12T00:34:19.532Z,100474.19
2023-10-12T00:37:21.342Z,100475.09
2023-10-12T00:40:23.208Z,100473.38
2023-10-12T00:43:25.522Z,100469.84
2023-10-12T00:46:27.246Z,100460.13
2023-10-12T00:49:30.515Z,100463.63
2023-10-12T00:52:32.342Z,100456.53
2023-10-12T00:55:34.366Z,100467.19
2023-10-12T00:58:36.111Z,100453.88
2023-10-12T01:01:37.875Z,100469.84
2023-10-12T01:04:41.490Z,100460.13
2023-10-12T01:07:42.961Z,100460.16
2023-10-12T01:10:44.631Z,100448.59
2023-10-12T01:13:47.790Z,100456.59
2023-10-12T01:16:49.497Z,100433.53
2023-10-12T01:19:52.681Z,100447.78
2023-10-12T01:22:55.738Z,100438.94
2023-10-12T01:25:57.373Z,100435.38
2023-10-12T01:28:59.254Z,100443.41
2023-10-12T01:32:01.034Z,100430.94
2023-10-12T01:35:02.726Z,100429.16
2023-10-12T01:38:06.256Z,100438.03
2023-10-12T01:41:08.018Z,100438.06
2023-10-12T01:44:10.057Z,100434.53
2023-10-12T01:47:11.745Z,100432.78
2023-10-12T01:50:13.475Z,100430.19
2023-10-12T01:53:16.947Z,100423.94
2023-10-12T01:56:18.606Z,100421.31
2023-10-12T01:59:20.415Z,100423.97
2023-10-12T02:02:22.136Z,100424.81
2023-10-12T02:05:23.796Z,100420.38
2023-10-12T02:08:27.785Z,100414.13
2023-10-12T02:11:29.697Z,100410.59
2023-10-12T02:14:31.386Z,100422.16
2023-10-12T02:17:33.138Z,100416.00
2023-10-12T02:20:34.829Z,100421.38
2023-10-12T02:23:38.877Z,100414.31
2023-10-12T02:26:40.925Z,100413.47
2023-10-12T02:29:42.616Z,100423.22
2023-10-12T02:32:44.341Z,100425.88
2023-10-12T02:35:46.219Z,100425.03
2023-10-12T02:38:49.343Z,100433.97
2023-10-12T02:41:51.039Z,100440.16
2023-10-12T02:44:54.447Z,100437.53
2023-10-12T02:47:56.189Z,100433.13
2023-10-12T02:50:57.956Z,100433.06
2023-10-12T02:54:01.025Z,100426.84
2023-10-12T02:57:02.756Z,100425.09
2023-10-12T03:00:05.104Z,100425.09
2023-10-12T03:03:06.905Z,100412.66
2023-10-12T03:06:08.906Z,100417.06
2023-10-12T03:09:12.193Z,100419.69
2023-10-12T03:12:13.849Z,100420.63
2023-10-12T03:15:15.678Z,100425.16
2023-10-12T03:18:17.390Z,100422.44
2023-10-12T03:21:19.075Z,100420.66
2023-10-12T03:24:22.339Z,100414.38
2023-10-12T03:27:24.129Z,100409.03
2023-10-12T03:30:25.920Z,100407.28
2023-10-12T03:33:27.612Z,100409.94
2023-10-12T03:36:30.196Z,100406.41
2023-10-12T03:39:33.691Z,100397.53
2023-10-12T03:42:35.377Z,100410.84
2023-10-12T03:45:37.156Z,100399.31
2023-10-12T03:48:38.940Z,100412.66
2023-10-12T03:51:40.745Z,100422.47
2023-10-12T03:54:43.871Z,100423.34
2023-10-12T03:57:45.609Z,100418.94
2023-10-12T04:00:53.413Z,100435.91
2023-10-12T04:03:55.227Z,100438.53
2023-10-12T04:06:57.111Z,100438.56
2023-10-12T04:10:00.294Z,100435.88
2023-10-12T04:13:02.165Z,100442.97
2023-10-12T04:16:04.969Z,100436.78
2023-10-12T04:19:06.699Z,100441.25
2023-10-12T04:22:08.459Z,100438.56
2023-10-12T04:25:11.580Z,100433.25
2023-10-12T04:28:14.897Z,100438.59
2023-10-12T04:31:16.707Z,100429.75
2023-10-12T04:34:19.462Z,100421.78
2023-10-12T04:37:21.341Z,100420.03
2023-10-12T04:40:24.387Z,100419.16
2023-10-12T04:43:26.037Z,100419.16
2023-10-12T04:46:27.815Z,100413.84
2023-10-12T04:49:30.099Z,100418.28
2023-10-12T04:52:31.900Z,100412.09
2023-10-12T04:55:34.996Z,100405.88
2023-10-12T04:58:37.249Z,100404.16
2023-10-12T05:01:38.994Z,100397.06
2023-10-12T05:04:40.842Z,100401.50
2023-10-12T05:07:42.638Z,100405.09
2023-10-12T05:10:45.710Z,100408.66
2023-10-12T05:13:47.504Z,100406.00
2023-10-12T05:16:49.212Z,100419.28
2023-10-12T05:19:51.169Z,100426.44
2023-10-12T05:22:52.979Z,100435.28
2023-10-12T05:25:56.289Z,100431.72
2023-10-12T05:28:58.010Z,100435.25
2023-10-12T05:31:59.697Z,100434.34
2023-10-12T05:35:01.516Z,100426.34
2023-10-12T05:38:03.449Z,100420.13
2023-10-12T05:41:08.481Z,100427.19
2023-10-12T05:44:10.691Z,100429.81
2023-10-12T05:47:12.611Z,100423.59
2023-10-12T05:50:14.354Z,100432.41
2023-10-12T05:53:16.226Z,100425.25
2023-10-12T05:56:19.301Z,100431.47
2023-10-12T05:59:21.327Z,100432.31
2023-10-12T06:02:23.127Z,100427.81
2023-10-12T06:05:24.860Z,100434.84
2023-10-12T06:08:32.328Z,100436.50
2023-10-12T06:11:41.373Z,100438.25
2023-10-12T06:14:53.868Z,100444.44
2023-10-12T06:18:20.565Z,100443.50
2023-10-12T06:21:23.052Z,100444.28
2023-10-12T06:24:30.865Z,100444.19
2023-10-12T06:27:33.921Z,100442.34
2023-10-12T06:30:35.719Z,100442.25
2023-10-12T06:33:37.564Z,100438.59
2023-10-12T06:36:39.338Z,100436.75
2023-10-12T06:39:57.339Z,100446.47
2023-10-12T06:43:01.376Z,100455.22
2023-10-12T06:46:03.211Z,100446.25
2023-10-12T06:49:05.034Z,100444.47
2023-10-12T06:52:09.517Z,100450.59
2023-10-12T06:55:11.365Z,100443.34
2023-10-12T06:58:14.408Z,100443.19
2023-10-12T07:01:16.198Z,100457.31
2023-10-12T07:04:19.196Z,100452.78
2023-10-12T07:07:21.923Z,100461.56
2023-10-12T07:10:23.670Z,100455.22
2023-10-12T07:13:27.080Z,100456.91
2023-10-12T07:16:28.780Z,100458.56
2023-10-12T07:19:30.509Z,100452.13
2023-10-12T07:22:33.135Z,100443.09
2023-10-12T07:25:34.819Z,100442.00
2023-10-12T07:28:37.828Z,100446.31
2023-10-12T07:31:39.643Z,100435.41
2023-10-12T07:34:41.390Z,100437.78
2023-10-12T07:37:43.127Z,100434.03
2023-10-12T07:40:45.139Z,100438.28
2023-10-12T07:43:48.124Z,100438.06
2023-10-12T07:46:50.041Z,100434.19
2023-10-12T07:49:52.048Z,100434.00
2023-10-12T07:52:56.395Z,100440.97
2023-10-12T07:55:58.115Z,100445.09
2023-10-12T07:59:01.678Z,100449.41
2023-10-12T08:02:03.431Z,100441.06
2023-10-12T08:05:05.440Z,100437.38
2023-10-12T08:08:07.190Z,100431.78
2023-10-12T08:11:09.062Z,100419.19
2023-10-12T08:14:12.184Z,100416.25
2023-10-12T08:17:13.862Z,100412.50
2023-10-12T08:20:15.677Z,100414.00
2023-10-12T08:23:17.331Z,100412.13
2023-10-12T08:26:19.005Z,100401.28
2023-10-12T08:29:22.069Z,100401.81
2023-10-12T08:32:23.771Z,100408.75
2023-10-12T08:35:25.857Z,100395.91
2023-10-12T08:38:27.734Z,100401.03
2023-10-12T08:41:29.472Z,100393.66
2023-10-12T08:44:32.735Z,100396.00
2023-10-12T08:47:34.803Z,100395.50
2023-10-12T08:50:38.998Z,100393.56
2023-10-12T08:53:42.040Z,100392.38
2023-10-12T08:56:43.754Z,100393.13
2023-10-12T08:59:49.963Z,100398.97
2023-10-12T09:02:55.396Z,100401.41
2023-10-12T09:05:57.091Z,100401.09
2023-10-12T09:08:58.962Z,100399.25
2023-10-12T09:12:00.671Z,100396.44
2023-10-12T09:15:06.213Z,100395.56
2023-10-12T09:18:09.215Z,100391.78
2023-10-12T09:21:12.349Z,100396.13
2023-10-12T09:24:14.051Z,100383.38
2023-10-12T09:27:16.329Z,100380.44
2023-10-12T09:30:19.527Z,100376.47
2023-10-12T09:33:22.468Z,100375.09
2023-10-12T09:36:24.145Z,100371.38
2023-10-12T09:39:25.897Z,100378.88
2023-10-12T09:42:30.780Z,100378.50
2023-10-12T09:45:36.351Z,100376.28
2023-10-12T09:48:39.955Z,100368.81
2023-10-12T09:51:43.312Z,100361.19
2023-10-12T09:54:46.883Z,100368.94
2023-10-12T09:57:48.804Z,100359.72
2023-10-12T10:00:52.093Z,100356.72
2023-10-12T10:03:54.842Z,100356.31
2023-10-12T10:07:03.006Z,100346.13
2023-10-12T10:10:07.471Z,100341.91
2023-10-12T10:13:37.612Z,100342.41
2023-10-12T10:16:40.679Z,100342.09
2023-10-12T10:19:42.589Z,100341.78
2023-10-12T10:22:44.254Z,100323.66
2023-10-12T10:25:54.198Z,100315.09
2023-10-12T10:28:55.902Z,100312.75
2023-10-12T10:31:59.050Z,100308.88
2023-10-12T10:35:00.686Z,100297.75
2023-10-12T10:38:02.211Z,100297.88
2023-10-12T10:41:04.643Z,100292.84
2023-10-12T10:44:09.129Z,100284.25
2023-10-12T10:47:12.447Z,100285.88
2023-10-12T10:50:14.419Z,100289.50
2023-10-12T10:53:16.351Z,100291.03
2023-10-12T10:56:18.268Z,100291.50
2023-10-12T10:59:20.090Z,100292.06
2023-10-12T11:02:23.344Z,100294.31
2023-10-12T11:05:25.098Z,100290.47
2023-10-12T11:08:26.808Z,100285.66
2023-10-12T11:11:28.775Z,100283.41
2023-10-12T11:14:30.603Z,100286.63
2023-10-12T11:17:36.381Z,100284.69
2023-10-12T11:20:38.107Z,100273.78
2023-10-12T11:23:39.848Z,100278.69
2023-10-12T11:26:51.796Z,100273.72
2023-10-12T11:29:53.718Z,100269.09
2023-10-12T11:32:58.021Z,100259.25
2023-10-12T11:35:59.787Z,100263.25
2023-10-12T11:39:02.440Z,100262.38
2023-10-12T11:42:04.709Z,100258.63
2023-10-12T11:45:07.312Z,100263.09
2023-10-12T11:48:22.202Z,100258.25
2023-10-12T11:51:23.850Z,100254.56
2023-10-12T11:54:25.517Z,100250.59
2023-10-12T11:57:27.269Z,100254.41
2023-10-12T12:00:29.001Z,100246.00
2023-10-12T12:03:32.066Z,100249.22
2023-10-12T12:06:33.769Z,100243.22
2023-10-12T12:09:35.533Z,100247.28
2023-10-12T12:12:37.217Z,100243.81
2023-10-12T12:15:39.395Z,100248.34
2023-10-12T12:18:42.577Z,100243.72
2023-10-12T12:21:44.106Z,100235.81
2023-10-12T12:24:45.843Z,100232.28
2023-10-12T12:27:47.651Z,100235.53
2023-10-12T12:33:55.383Z,100235.19
2023-10-12T12:36:56.993Z,100227.56
2023-10-12T12:39:58.753Z,100237.19
2023-10-12T12:43:00.505Z,100235.97
2023-10-12T12:46:02.408Z,100225.97
2023-10-12T12:49:05.550Z,100219.75
2023-10-12T12:52:07.347Z,100216.44
2023-10-12T12:55:09.292Z,100210.03
2023-10-12T12:58:11.153Z,100203.91
2023-10-12T13:01:13.331Z,100210.19
2023-10-12T13:04:16.527Z,100204.88
2023-10-12T13:07:18.402Z,100190.66
2023-10-12T13:10:20.408Z,100193.41
2023-10-12T13:13:22.323Z,100187.13
2023-10-12T13:16:24.135Z,100189.13
2023-10-12T13:19:27.355Z,100181.00
2023-10-12T13:22:28.878Z,100188.78
2023-10-12T13:25:30.433Z,100185.13
2023-10-12T13:28:32.167Z,100182.75
2023-10-12T13:31:33.928Z,100172.88
2023-10-12T13:34:37.139Z,100167.47
2023-10-12T13:37:38.830Z,100173.66
2023-10-12T13:40:41.261Z,100169.00
2023-10-12T13:43:42.914Z,100168.19
2023-10-12T13:46:44.677Z,100160.22
2023-10-12T13:49:47.779Z,100174.72
2023-10-12T13:52:49.455Z,100167.69
2023-10-12T13:55:51.250Z,100167.81
2023-10-12T13:58:53.080Z,100155.38
2023-10-12T14:01:54.948Z,100148.94
2023-10-12T14:04:58.077Z,100147.34
2023-10-12T14:07:59.760Z,100142.63
2023-10-12T14:11:01.452Z,100141.75
2023-10-12T14:14:03.088Z,100125.53
2023-10-12T14:17:04.781Z,100133.94
2023-10-12T14:20:08.506Z,100133.13
2023-10-12T14:23:10.220Z,100119.88
2023-10-12T14:26:12.480Z,100125.59
2023-10-12T14:29:14.253Z,100125.69
2023-10-12T14:32:16.009Z,100116.81
2023-10-12T14:35:19.067Z,100130.28
2023-10-12T14:38:20.762Z,100125.97
2023-10-12T14:41:22.510Z,100118.03
2023-10-12T14:44:24.255Z,100119.94
2023-10-12T14:47:25.962Z,100115.72
2023-10-12T14:50:29.033Z,100123.78
2023-10-12T14:53:30.721Z,100129.31
2023-10-12T14:56:32.449Z,100125.84
2023-10-12T14:59:34.142Z,100120.81
2023-10-12T15:02:35.917Z,100119.16
2023-10-12T15:05:39.500Z,100127.28
2023-10-12T15:08:42.030Z,100123.81
2023-10-12T15:11:43.835Z,100122.16
2023-10-12T15:14:45.552Z,100121.44
2023-10-12T15:17:47.451Z,100121.81
2023-10-12T15:20:51.159Z,100127.22
2023-10-12T15:23:52.823Z,100126.13
2023-10-12T15:26:54.493Z,100125.78
2023-10-12T15:29:57.334Z,100130.09
2023-10-12T15:32:59.218Z,100134.19
2023-10-12T15:36:03.019Z,100129.41
2023-10-12T15:39:05.751Z,100129.91
2023-10-12T15:42:07.413Z,100140.34
2023-10-12T15:45:09.518Z,100138.38
2023-10-12T15:48:11.788Z,100138.81
2023-10-12T15:51:18.780Z,100145.69
2023-10-12T15:54:20.610Z,100148.34
2023-10-12T15:57:23.319Z,100150.09
2023-10-12T16:00:25.073Z,100157.78
2023-10-12T16:03:27.494Z,100157.44
2023-10-12T16:06:33.421Z,100167.16
2023-10-12T16:09:35.190Z,100163.28
2023-10-12T16:12:37.941Z,100170.25
2023-10-12T16:15:40.337Z,100168.94
2023-10-12T16:18:42.334Z,100166.72
2023-10-12T16:21:46.293Z,100174.53
2023-10-12T16:24:48.472Z,100165.09
2023-10-12T16:27:50.579Z,100169.81
2023-10-12T16:30:55.677Z,100173.97
2023-10-12T16:33:57.807Z,100181.53
2023-10-12T16:37:01.362Z,100190.94
2023-10-12T16:40:03.618Z,100200.25
2023-10-12T16:43:05.987Z,100190.00
2023-10-12T16:46:13.015Z,100201.81
2023-10-12T16:49:15.245Z,100194.16
2023-10-12T16:52:19.070Z,100194.47
2023-10-12T16:55:21.100Z,100190.38
2023-10-12T16:58:23.193Z,100194.16
2023-10-12T17:01:25.767Z,100196.34
2023-10-12T17:04:43.928Z,100200.16
2023-10-12T17:07:47.585Z,100207.72
2023-10-12T17:10:49.789Z,100205.28
2023-10-12T17:13:52.562Z,100200.25
2023-10-12T17:16:54.308Z,100206.75
2023-10-12T17:19:56.092Z,100202.34
2023-10-12T17:22:59.146Z,100216.06
2023-10-12T17:26:00.982Z,100206.31
2023-10-12T17:29:03.074Z,100203.75
2023-10-12T17:32:05.547Z,100200.50
2023-10-12T17:35:08.643Z,100193.69
2023-10-12T17:38:12.232Z,100201.88
2023-10-12T17:41:15.013Z,100194.94
2023-10-12T17:44:17.034Z,100195.09
2023-10-12T17:47:18.962Z,100193.69
2023-10-12T17:50:21.033Z,100196.50
2023-10-12T17:53:24.892Z,100202.78
2023-10-12T17:56:26.684Z,100203.78
2023-10-12T17:59:28.844Z,100199.31
2023-10-12T18:02:31.168Z,100201.19
2023-10-12T18:05:33.936Z,100196.69
2023-10-12T18:08:38.053Z,100197.75
2023-10-12T18:11:40.805Z,100194.38
2023-10-12T18:14:44.035Z,100202.53
2023-10-12T18:17:47.285Z,100198.34
2023-10-12T18:20:49.540Z,100209.19
2023-10-12T18:23:53.875Z,100206.59
2023-10-12T18:26:57.779Z,100208.69
2023-10-12T18:30:00.404Z,100207.19
2023-10-12T18:33:02.711Z,100219.75
2023-10-12T18:36:07.918Z,100220.78
2023-10-12T18:39:14.578Z,100221.84
2023-10-12T18:42:17.197Z,100221.75
2023-10-12T18:45:20.284Z,100215.56
2023-10-12T18:48:24.454Z,100220.84
2023-10-12T18:51:28.058Z,100225.34
2023-10-12T18:54:32.501Z,100235.22
2023-10-12T18:57:40.714Z,100231.69
2023-10-12T19:00:44.577Z,100231.88
2023-10-12T19:03:48.260Z,100230.34
2023-10-12T19:06:51.628Z,100229.63
2023-10-12T19:09:55.908Z,100235.00
2023-10-12T19:13:10.026Z,100232.50
2023-10-12T19:16:22.982Z,100237.94
2023-10-12T19:19:28.999Z,100238.00
2023-10-12T19:22:34.333Z,100235.44
2023-10-12T19:25:39.417Z,100239.91
2023-10-12T19:28:43.350Z,100246.28
2023-10-12T19:31:46.868Z,100254.34
2023-10-12T19:34:50.384Z,100250.75
2023-10-12T19:37:54.097Z,100250.69
2023-10-12T19:41:03.686Z,100249.81
2023-10-12T19:44:06.088Z,100249.63
2023-10-12T19:47:08.416Z,100251.94
2023-10-12T19:50:11.769Z,100249.28
2023-10-12T19:53:14.388Z,100236.88
2023-10-12T19:56:22.174Z,100246.59
2023-10-12T19:59:24.870Z,100244.81
2023-10-12T20:02:27.103Z,100232.25
2023-10-12T20:05:30.282Z,100237.56
2023-10-12T20:08:33.103Z,100232.13
2023-10-12T20:11:36.919Z,100236.47
2023-10-12T20:14:39.146Z,100232.88
2023-10-12T20:17:41.466Z,100232.75
2023-10-12T20:20:43.906Z,100234.53
2023-10-12T20:23:46.572Z,100238.13
2023-10-12T20:26:50.108Z,100244.34
2023-10-12T20:29:51.661Z,100243.38
2023-10-12T20:32:53.432Z,100240.69
2023-10-12T20:35:58.997Z,100231.75
2023-10-12T20:39:00.752Z,100238.03
2023-10-12T20:42:03.868Z,100230.16
2023-10-12T20:45:07.771Z,100234.16
2023-10-12T20:48:09.667Z,100231.81
2023-10-12T20:51:11.407Z,100234.53
2023-10-12T20:54:13.080Z,100235.41
2023-10-12T20:57:17.944Z,100236.41
2023-10-12T21:00:19.949Z,100232.94
2023-10-12T21:03:21.601Z,100221.31
2023-10-12T21:06:24.044Z,100225.00
2023-10-12T21:09:25.834Z,100227.66
2023-10-12T21:12:29.356Z,100223.28
2023-10-12T21:15:30.824Z,100226.84
2023-10-12T21:18:32.477Z,100230.44
2023-10-12T21:21:34.194Z,100219.81
2023-10-12T21:24:35.906Z,100216.38
2023-10-12T21:27:38.963Z,100215.56
2023-10-12T21:30:40.623Z,100204.94
2023-10-12T21:33:42.279Z,100209.44
2023-10-12T21:36:44.016Z,100212.19
2023-10-12T21:39:45.981Z,100210.47
2023-10-12T21:42:49.214Z,100215.81
2023-10-12T21:45:52.213Z,100213.03
2023-10-12T21:48:53.930Z,100216.59
2023-10-12T21:51:55.614Z,100224.56
2023-10-12T21:54:57.460Z,100218.34
2023-10-12T21:58:00.552Z,100218.34
2023-10-12T22:01:02.327Z,100207.63
2023-10-12T22:04:05.185Z,100218.31
2023-10-12T22:07:08.915Z,100205.84
2023-10-12T22:10:10.951Z,100207.69
2023-10-12T22:13:14.071Z,100207.75
2023-10-12T22:16:16.007Z,100214.81
2023-10-12T22:19:19.244Z,100213.06
2023-10-12T22:22:21.261Z,100203.25
2023-10-12T22:25:23.000Z,100220.19
2023-10-12T22:28:26.215Z,100222.84
2023-10-12T22:31:27.976Z,100213.91
2023-10-12T22:34:29.832Z,100205.00
2023-10-12T22:37:31.568Z,100200.47
2023-10-12T22:40:33.312Z,100201.09
2023-10-12T22:43:37.146Z,100193.88
2023-10-12T22:46:38.879Z,100201.81
2023-10-12T22:49:40.664Z,100209.91
2023-10-12T22:52:43.120Z,100209.75
2023-10-12T22:55:44.807Z,100216.06
2023-10-12T22:58:47.963Z,100216.97
2023-10-12T23:01:49.714Z,100221.41
2023-10-12T23:04:51.516Z,100219.66
2023-10-12T23:07:53.206Z,100223.22
2023-10-12T23:10:54.940Z,100225.06
2023-10-12T23:13:57.961Z,100215.28
2023-10-12T23:16:59.964Z,100219.84
2023-10-12T23:23:09.883Z,100220.09
2023-10-12T23:26:11.594Z,100227.22
2023-10-12T23:29:14.635Z,100241.56
2023-10-12T23:32:16.512Z,100235.44
2023-10-12T23:35:18.321Z,100233.75
2023-10-12T23:38:20.375Z,100235.50
2023-10-12T23:41:22.022Z,100235.44
2023-10-12T23:44:25.021Z,100239.91
2023-10-12T23:47:26.810Z,100246.22
2023-10-12T23:50:28.675Z,100245.41
2023-10-12T23:53:30.739Z,100249.00
2023-10-12T23:56:32.443Z,100243.72
2023-10-12T23:59:35.505Z,100238.47
